createdAt,value
2023-02-27T00:00:29.664Z,1028.86
2023-02-27T00:01:29.860Z,1028.88
2023-02-27T00:02:30.057Z,1028.85
2023-02-27T00:03:30.215Z,1028.84
2023-02-27T00:04:30.365Z,1028.86
2023-02-27T00:05:30.563Z,1028.85
2023-02-27T00:06:30.703Z,1028.81
2023-02-27T00:07:30.874Z,1028.83
2023-02-27T00:08:31.082Z,1028.80
2023-02-27T00:09:31.213Z,1028.84
2023-02-27T00:10:31.414Z,1028.86
2023-02-27T00:11:31.545Z,1028.89
2023-02-27T00:12:31.711Z,1028.85
2023-02-27T00:13:31.912Z,1028.83
2023-02-27T00:14:32.050Z,1028.86
2023-02-27T00:15:32.235Z,1028.83
2023-02-27T00:16:32.391Z,1028.81
2023-02-27T00:17:32.586Z,1028.87
2023-02-27T00:18:32.753Z,1028.83
2023-02-27T00:19:32.922Z,1028.87
2023-02-27T00:20:33.110Z,1028.84
2023-02-27T00:21:34.763Z,1028.85
2023-02-27T00:22:33.423Z,1028.84
2023-02-27T00:23:33.602Z,1028.86
2023-02-27T00:24:33.761Z,1028.84
2023-02-27T00:25:33.976Z,1028.86
2023-02-27T00:26:34.102Z,1028.83
2023-02-27T00:27:34.278Z,1028.86
2023-02-27T00:28:34.440Z,1028.82
2023-02-27T00:29:34.612Z,1028.83
2023-02-27T00:30:34.918Z,1028.84
2023-02-27T00:31:34.990Z,1028.78
2023-02-27T00:32:35.177Z,1028.83
2023-02-27T00:33:35.297Z,1028.79
2023-02-27T00:34:35.468Z,1028.81
2023-02-27T00:35:35.664Z,1028.81
2023-02-27T00:36:35.816Z,1028.76
2023-02-27T00:37:35.998Z,1028.74
2023-02-27T00:38:36.174Z,1028.76
2023-02-27T00:39:36.348Z,1028.74
2023-02-27T00:40:36.525Z,1028.75
2023-02-27T00:41:36.707Z,1028.73
2023-02-27T00:42:36.875Z,1028.77
2023-02-27T00:43:37.056Z,1028.79
2023-02-27T00:44:37.268Z,1028.80
2023-02-27T00:45:37.425Z,1028.76
2023-02-27T00:46:37.621Z,1028.81
2023-02-27T00:47:37.739Z,1028.81
2023-02-27T00:48:37.896Z,1028.80
2023-02-27T00:49:38.064Z,1028.80
2023-02-27T00:50:38.257Z,1028.82
2023-02-27T00:51:38.434Z,1028.81
2023-02-27T00:52:38.610Z,1028.81
2023-02-27T00:53:38.792Z,1028.76
2023-02-27T00:54:38.969Z,1028.83
2023-02-27T00:55:39.152Z,1028.80
2023-02-27T00:56:39.331Z,1028.78
2023-02-27T00:57:39.611Z,1028.79
2023-02-27T00:58:39.686Z,1028.77
2023-02-27T00:59:39.856Z,1028.77
2023-02-27T01:00:40.094Z,1028.76
2023-02-27T01:01:40.224Z,1028.73
2023-02-27T01:02:40.402Z,1028.77
2023-02-27T01:03:40.554Z,1028.76
2023-02-27T01:04:40.715Z,1028.74
2023-02-27T01:05:40.917Z,1028.73
2023-02-27T01:06:41.072Z,1028.75
2023-02-27T01:07:41.245Z,1028.72
2023-02-27T01:08:41.418Z,1028.75
2023-02-27T01:09:41.599Z,1028.72
2023-02-27T01:10:41.808Z,1028.72
2023-02-27T01:11:41.962Z,1028.77
2023-02-27T01:12:42.138Z,1028.74
2023-02-27T01:13:42.314Z,1028.71
2023-02-27T01:14:42.477Z,1028.71
2023-02-27T01:15:42.686Z,1028.66
2023-02-27T01:16:42.906Z,1028.70
2023-02-27T01:17:42.992Z,1028.67
2023-02-27T01:18:43.153Z,1028.68
2023-02-27T01:19:43.338Z,1028.67
2023-02-27T01:20:43.525Z,1028.68
2023-02-27T01:21:43.697Z,1028.71
2023-02-27T01:22:43.855Z,1028.72
2023-02-27T01:23:44.052Z,1028.74
2023-02-27T01:24:44.199Z,1028.69
2023-02-27T01:25:44.374Z,1028.69
2023-02-27T01:26:44.543Z,1028.67
2023-02-27T01:27:44.724Z,1028.70
2023-02-27T01:28:44.894Z,1028.72
2023-02-27T01:29:45.077Z,1028.70
2023-02-27T01:30:45.294Z,1028.71
2023-02-27T01:31:45.552Z,1028.72
2023-02-27T01:32:45.663Z,1028.68
2023-02-27T01:33:45.744Z,1028.71
2023-02-27T01:34:45.924Z,1028.71
2023-02-27T01:35:46.124Z,1028.71
2023-02-27T01:36:46.255Z,1028.65
2023-02-27T01:37:46.429Z,1028.71
2023-02-27T01:38:46.614Z,1028.72
2023-02-27T01:39:46.784Z,1028.74
2023-02-27T01:40:46.981Z,1028.74
2023-02-27T01:41:47.148Z,1028.74
2023-02-27T01:42:47.296Z,1028.74
2023-02-27T01:43:47.461Z,1028.73
2023-02-27T01:44:47.636Z,1028.74
2023-02-27T01:45:47.908Z,1028.71
2023-02-27T01:46:48.027Z,1028.71
2023-02-27T01:47:48.170Z,1028.70
2023-02-27T01:48:48.329Z,1028.68
2023-02-27T01:49:48.514Z,1028.69
2023-02-27T01:50:48.698Z,1028.68
2023-02-27T01:51:48.837Z,1028.68
2023-02-27T01:52:49.028Z,1028.71
2023-02-27T01:53:49.230Z,1028.69
2023-02-27T01:54:49.388Z,1028.69
2023-02-27T01:55:49.587Z,1028.69
2023-02-27T01:56:49.717Z,1028.67
2023-02-27T01:57:49.899Z,1028.66
2023-02-27T01:58:50.068Z,1028.67
2023-02-27T01:59:50.251Z,1028.63
2023-02-27T02:00:50.473Z,1028.65
2023-02-27T02:01:50.597Z,1028.64
2023-02-27T02:02:50.767Z,1028.64
2023-02-27T02:03:50.937Z,1028.68
2023-02-27T02:04:51.149Z,1028.72
2023-02-27T02:05:51.313Z,1028.72
2023-02-27T02:06:51.460Z,1028.71
2023-02-27T02:07:51.630Z,1028.72
2023-02-27T02:08:51.792Z,1028.68
2023-02-27T02:09:51.984Z,1028.71
2023-02-27T02:10:52.157Z,1028.75
2023-02-27T02:11:52.341Z,1028.72
2023-02-27T02:12:52.491Z,1028.72
2023-02-27T02:13:52.665Z,1028.70
2023-02-27T02:14:52.845Z,1028.66
2023-02-27T02:15:53.034Z,1028.71
2023-02-27T02:16:53.202Z,1028.69
2023-02-27T02:17:53.368Z,1028.73
2023-02-27T02:18:53.544Z,1028.73
2023-02-27T02:19:53.732Z,1028.74
2023-02-27T02:20:53.912Z,1028.79
2023-02-27T02:21:54.083Z,1028.77
2023-02-27T02:22:54.292Z,1028.76
2023-02-27T02:23:54.428Z,1028.80
2023-02-27T02:24:54.595Z,1028.77
2023-02-27T02:25:54.782Z,1028.78
2023-02-27T02:26:54.955Z,1028.78
2023-02-27T02:27:55.125Z,1028.77
2023-02-27T02:28:55.294Z,1028.73
2023-02-27T02:29:55.473Z,1028.76
2023-02-27T02:30:55.698Z,1028.72
2023-02-27T02:31:55.995Z,1028.74
2023-02-27T02:32:55.996Z,1028.76
2023-02-27T02:33:56.173Z,1028.75
2023-02-27T02:34:56.345Z,1028.72
2023-02-27T02:35:56.520Z,1028.76
2023-02-27T02:36:56.659Z,1028.74
2023-02-27T02:37:56.820Z,1028.74
2023-02-27T02:38:57.005Z,1028.75
2023-02-27T02:39:57.183Z,1028.74
2023-02-27T02:40:57.360Z,1028.74
2023-02-27T02:41:57.527Z,1028.74
2023-02-27T02:42:57.812Z,1028.75
2023-02-27T02:43:57.867Z,1028.76
2023-02-27T02:44:58.034Z,1028.78
2023-02-27T02:45:58.242Z,1028.74
2023-02-27T02:46:58.389Z,1028.75
2023-02-27T02:47:58.567Z,1028.77
2023-02-27T02:48:58.769Z,1028.78
2023-02-27T02:49:58.921Z,1028.78
2023-02-27T02:50:59.123Z,1028.81
2023-02-27T02:51:59.280Z,1028.79
2023-02-27T02:52:59.485Z,1028.81
2023-02-27T02:53:59.649Z,1028.79
2023-02-27T02:54:59.808Z,1028.82
2023-02-27T02:56:00.015Z,1028.84
2023-02-27T02:57:00.137Z,1028.83
2023-02-27T02:58:00.325Z,1028.85
2023-02-27T02:59:00.519Z,1028.83
2023-02-27T03:00:00.736Z,1028.82
2023-02-27T03:01:00.827Z,1028.82
2023-02-27T03:02:00.978Z,1028.81
2023-02-27T03:03:01.159Z,1028.86
2023-02-27T03:04:01.418Z,1028.82
2023-02-27T03:05:01.529Z,1028.88
2023-02-27T03:06:01.678Z,1028.85
2023-02-27T03:07:01.858Z,1028.81
2023-02-27T03:08:02.029Z,1028.85
2023-02-27T03:09:02.212Z,1028.84
2023-02-27T03:10:02.380Z,1028.84
2023-02-27T03:11:02.557Z,1028.82
2023-02-27T03:12:02.752Z,1028.86
2023-02-27T03:13:02.906Z,1028.85
2023-02-27T03:14:03.086Z,1028.87
2023-02-27T03:15:03.255Z,1028.86
2023-02-27T03:16:03.479Z,1028.86
2023-02-27T03:17:03.612Z,1028.90
2023-02-27T03:18:03.788Z,1028.88
2023-02-27T03:19:03.957Z,1028.88
2023-02-27T03:20:04.138Z,1028.95
2023-02-27T03:21:04.315Z,1028.99
2023-02-27T03:22:04.499Z,1028.99
2023-02-27T03:23:04.674Z,1029.03
2023-02-27T03:24:04.851Z,1029.04
2023-02-27T03:25:05.032Z,1029.06
2023-02-27T03:26:05.224Z,1029.03
2023-02-27T03:27:05.379Z,1029.05
2023-02-27T03:28:05.549Z,1029.01
2023-02-27T03:29:05.735Z,1029.03
2023-02-27T03:30:05.930Z,1029.08
2023-02-27T03:31:07.702Z,1029.04
2023-02-27T03:32:06.280Z,1029.11
2023-02-27T03:33:06.398Z,1029.12
2023-02-27T03:34:06.577Z,1029.11
2023-02-27T03:35:06.739Z,1029.14
2023-02-27T03:36:06.967Z,1029.11
2023-02-27T03:37:07.107Z,1029.11
2023-02-27T03:38:07.275Z,1029.12
2023-02-27T03:39:07.454Z,1029.15
2023-02-27T03:40:07.629Z,1029.14
2023-02-27T03:41:07.797Z,1029.17
2023-02-27T03:42:07.974Z,1029.16
2023-02-27T03:43:08.146Z,1029.21
2023-02-27T03:44:08.320Z,1029.27
2023-02-27T03:45:08.516Z,1029.25
2023-02-27T03:46:08.665Z,1029.20
2023-02-27T03:47:08.813Z,1029.26
2023-02-27T03:48:08.994Z,1029.22
2023-02-27T03:49:09.162Z,1029.26
2023-02-27T03:50:09.361Z,1029.23
2023-02-27T03:51:09.532Z,1029.26
2023-02-27T03:52:09.702Z,1029.28
2023-02-27T03:53:09.877Z,1029.27
2023-02-27T03:54:10.057Z,1029.29
2023-02-27T03:55:10.210Z,1029.30
2023-02-27T03:56:10.400Z,1029.35
2023-02-27T03:57:10.562Z,1029.34
2023-02-27T03:58:10.734Z,1029.33
2023-02-27T03:59:10.902Z,1029.33
2023-02-27T04:00:11.073Z,1029.30
2023-02-27T04:01:11.269Z,1029.34
2023-02-27T04:02:11.484Z,1029.37
2023-02-27T04:03:11.579Z,1029.36
2023-02-27T04:04:11.740Z,1029.32
2023-02-27T04:05:11.918Z,1029.35
2023-02-27T04:06:12.100Z,1029.33
2023-02-27T04:07:12.271Z,1029.42
2023-02-27T04:08:12.447Z,1029.43
2023-02-27T04:09:12.612Z,1029.43
2023-02-27T04:10:12.780Z,1029.43
2023-02-27T04:11:12.965Z,1029.42
2023-02-27T04:12:13.148Z,1029.44
2023-02-27T04:13:13.315Z,1029.44
2023-02-27T04:14:13.486Z,1029.41
2023-02-27T04:15:13.669Z,1029.48
2023-02-27T04:16:13.861Z,1029.48
2023-02-27T04:17:13.994Z,1029.45
2023-02-27T04:18:14.158Z,1029.48
2023-02-27T04:19:14.337Z,1029.47
2023-02-27T04:20:14.501Z,1029.44
2023-02-27T04:21:14.696Z,1029.48
2023-02-27T04:22:14.827Z,1029.48
2023-02-27T04:23:15.004Z,1029.46
2023-02-27T04:24:15.177Z,1029.47
2023-02-27T04:25:15.347Z,1029.47
2023-02-27T04:26:15.534Z,1029.47
2023-02-27T04:27:15.705Z,1029.48
2023-02-27T04:28:15.873Z,1029.51
2023-02-27T04:29:16.068Z,1029.49
2023-02-27T04:30:16.199Z,1029.53
2023-02-27T04:31:16.483Z,1029.49
2023-02-27T04:32:16.639Z,1029.54
2023-02-27T04:33:16.740Z,1029.54
2023-02-27T04:34:16.901Z,1029.55
2023-02-27T04:35:17.082Z,1029.54
2023-02-27T04:36:17.271Z,1029.54
2023-02-27T04:37:17.411Z,1029.57
2023-02-27T04:38:17.580Z,1029.65
2023-02-27T04:39:17.760Z,1029.65
2023-02-27T04:40:17.957Z,1029.65
2023-02-27T04:41:18.131Z,1029.64
2023-02-27T04:42:18.323Z,1029.64
2023-02-27T04:43:18.495Z,1029.63
2023-02-27T04:44:18.661Z,1029.64
2023-02-27T04:45:18.831Z,1029.67
2023-02-27T04:46:19.004Z,1029.67
2023-02-27T04:47:19.191Z,1029.68
2023-02-27T04:48:19.377Z,1029.72
2023-02-27T04:49:19.530Z,1029.69
2023-02-27T04:50:19.726Z,1029.71
2023-02-27T04:51:19.913Z,1029.71
2023-02-27T04:52:20.071Z,1029.72
2023-02-27T04:53:20.248Z,1029.72
2023-02-27T04:54:20.420Z,1029.72
2023-02-27T04:55:20.601Z,1029.74
2023-02-27T04:56:20.788Z,1029.75
2023-02-27T04:57:20.983Z,1029.76
2023-02-27T04:58:21.112Z,1029.76
2023-02-27T04:59:21.305Z,1029.76
2023-02-27T05:00:21.463Z,1029.76
2023-02-27T05:01:21.662Z,1029.78
2023-02-27T05:02:21.837Z,1029.79
2023-02-27T05:03:22.055Z,1029.80
2023-02-27T05:04:22.131Z,1029.80
2023-02-27T05:05:22.310Z,1029.84
2023-02-27T05:06:22.511Z,1029.81
2023-02-27T05:07:22.664Z,1029.81
2023-02-27T05:08:22.829Z,1029.77
2023-02-27T05:09:23.020Z,1029.78
2023-02-27T05:10:23.186Z,1029.85
2023-02-27T05:11:23.394Z,1029.82
2023-02-27T05:12:23.525Z,1029.78
2023-02-27T05:13:23.692Z,1029.83
2023-02-27T05:14:23.870Z,1029.82
2023-02-27T05:15:24.076Z,1029.88
2023-02-27T05:16:24.260Z,1029.86
2023-02-27T05:17:24.422Z,1029.87
2023-02-27T05:18:24.575Z,1029.83
2023-02-27T05:19:24.745Z,1029.85
2023-02-27T05:20:24.944Z,1029.78
2023-02-27T05:21:25.294Z,1029.79
2023-02-27T05:22:25.260Z,1029.79
2023-02-27T05:23:25.438Z,1029.76
2023-02-27T05:24:25.610Z,1029.76
2023-02-27T05:25:25.792Z,1029.75
2023-02-27T05:26:25.996Z,1029.76
2023-02-27T05:27:26.152Z,1029.77
2023-02-27T05:28:26.310Z,1029.78
2023-02-27T05:29:26.497Z,1029.79
2023-02-27T05:30:26.666Z,1029.77
2023-02-27T05:31:27.686Z,1029.77
2023-02-27T05:32:27.085Z,1029.78
2023-02-27T05:33:27.211Z,1029.77
2023-02-27T05:34:27.380Z,1029.75
2023-02-27T05:35:29.267Z,1029.80
2023-02-27T05:36:27.803Z,1029.79
2023-02-27T05:37:27.908Z,1029.74
2023-02-27T05:38:28.104Z,1029.75
2023-02-27T05:39:28.258Z,1029.75
2023-02-27T05:40:28.437Z,1029.72
2023-02-27T05:41:28.943Z,1029.78
2023-02-27T05:42:28.753Z,1029.78
2023-02-27T05:43:28.948Z,1029.84
2023-02-27T05:44:29.145Z,1029.84
2023-02-27T05:45:29.333Z,1029.81
2023-02-27T05:46:29.514Z,1029.84
2023-02-27T05:47:29.716Z,1029.87
2023-02-27T05:48:29.853Z,1029.85
2023-02-27T05:49:30.027Z,1029.85
2023-02-27T05:50:30.171Z,1029.86
2023-02-27T05:51:30.384Z,1029.84
2023-02-27T05:52:30.516Z,1029.86
2023-02-27T05:53:30.695Z,1029.86
2023-02-27T05:54:30.854Z,1029.87
2023-02-27T05:55:31.048Z,1029.84
2023-02-27T05:56:31.234Z,1029.89
2023-02-27T05:57:31.419Z,1029.93
2023-02-27T05:58:31.593Z,1029.94
2023-02-27T05:59:31.783Z,1029.97
2023-02-27T06:00:31.993Z,1030.01
2023-02-27T06:01:32.170Z,1030.06
2023-02-27T06:02:32.371Z,1030.08
2023-02-27T06:03:32.562Z,1030.11
2023-02-27T06:04:32.692Z,1030.15
2023-02-27T06:05:32.872Z,1030.17
2023-02-27T06:06:33.066Z,1030.15
2023-02-27T06:07:33.226Z,1030.18
2023-02-27T06:08:33.384Z,1030.16
2023-02-27T06:09:33.575Z,1030.12
2023-02-27T06:10:33.742Z,1030.15
2023-02-27T06:11:33.934Z,1030.19
2023-02-27T06:12:34.104Z,1030.21
2023-02-27T06:13:34.247Z,1030.15
2023-02-27T06:14:34.424Z,1030.20
2023-02-27T06:15:34.616Z,1030.23
2023-02-27T06:16:34.838Z,1030.29
2023-02-27T06:17:34.970Z,1030.32
2023-02-27T06:18:35.143Z,1030.35
2023-02-27T06:19:35.324Z,1030.38
2023-02-27T06:20:35.500Z,1030.40
2023-02-27T06:21:35.692Z,1030.39
2023-02-27T06:22:35.834Z,1030.37
2023-02-27T06:23:36.014Z,1030.36
2023-02-27T06:24:36.188Z,1030.33
2023-02-27T06:25:36.372Z,1030.34
2023-02-27T06:26:36.564Z,1030.36
2023-02-27T06:27:36.710Z,1030.37
2023-02-27T06:28:36.884Z,1030.35
2023-02-27T06:29:37.063Z,1030.36
2023-02-27T06:30:37.251Z,1030.39
2023-02-27T06:31:37.453Z,1030.43
2023-02-27T06:32:37.619Z,1030.42
2023-02-27T06:33:37.799Z,1030.42
2023-02-27T06:34:38.002Z,1030.46
2023-02-27T06:35:38.166Z,1030.49
2023-02-27T06:36:38.348Z,1030.51
2023-02-27T06:37:38.506Z,1030.50
2023-02-27T06:38:38.696Z,1030.49
2023-02-27T06:39:38.890Z,1030.48
2023-02-27T06:40:39.059Z,1030.51
2023-02-27T06:41:39.225Z,1030.53
2023-02-27T06:42:39.394Z,1030.58
2023-02-27T06:43:39.631Z,1030.54
2023-02-27T06:44:39.744Z,1030.53
2023-02-27T06:45:39.934Z,1030.55
2023-02-27T06:46:40.268Z,1030.52
2023-02-27T06:47:40.302Z,1030.50
2023-02-27T06:48:40.497Z,1030.49
2023-02-27T06:49:40.747Z,1030.47
2023-02-27T06:50:40.862Z,1030.47
2023-02-27T06:51:41.030Z,1030.48
2023-02-27T06:52:41.204Z,1030.51
2023-02-27T06:53:41.385Z,1030.50
2023-02-27T06:54:41.561Z,1030.51
2023-02-27T06:55:41.730Z,1030.49
2023-02-27T06:56:41.939Z,1030.43
2023-02-27T06:57:42.099Z,1030.44
2023-02-27T06:58:42.303Z,1030.47
2023-02-27T06:59:42.449Z,1030.46
2023-02-27T07:00:42.637Z,1030.53
2023-02-27T07:01:42.910Z,1030.45
2023-02-27T07:02:42.983Z,1030.40
2023-02-27T07:03:43.141Z,1030.40
2023-02-27T07:04:43.430Z,1030.42
2023-02-27T07:05:43.541Z,1030.39
2023-02-27T07:07:35.795Z,1030.41
2023-02-27T07:07:44.895Z,1030.34
2023-02-27T07:09:01.428Z,1030.35
2023-02-27T07:09:45.260Z,1030.34
2023-02-27T07:10:44.436Z,1030.38
2023-02-27T07:11:44.637Z,1030.38
2023-02-27T07:12:44.791Z,1030.38
2023-02-27T07:13:44.979Z,1030.42
2023-02-27T07:14:45.169Z,1030.37
2023-02-27T07:15:45.360Z,1030.41
2023-02-27T07:16:45.528Z,1030.40
2023-02-27T07:17:45.688Z,1030.44
2023-02-27T07:18:45.878Z,1030.44
2023-02-27T07:19:46.060Z,1030.56
2023-02-27T07:20:46.250Z,1030.55
2023-02-27T07:21:46.472Z,1030.67
2023-02-27T07:22:46.639Z,1030.68
2023-02-27T07:23:46.806Z,1030.78
2023-02-27T07:24:46.989Z,1030.80
2023-02-27T07:25:47.144Z,1030.82
2023-02-27T07:26:47.366Z,1030.88
2023-02-27T07:27:47.496Z,1030.87
2023-02-27T07:28:47.693Z,1030.94
2023-02-27T07:29:47.866Z,1030.94
2023-02-27T07:30:48.102Z,1030.93
2023-02-27T07:31:48.280Z,1030.92
2023-02-27T07:32:48.396Z,1030.86
2023-02-27T07:33:48.585Z,1030.83
2023-02-27T07:34:48.764Z,1030.81
2023-02-27T07:35:48.974Z,1030.77
2023-02-27T07:36:49.111Z,1030.77
2023-02-27T07:37:49.275Z,1030.73
2023-02-27T07:38:49.439Z,1030.78
2023-02-27T07:39:49.607Z,1030.79
2023-02-27T07:40:49.790Z,1030.77
2023-02-27T07:41:50.046Z,1030.70
2023-02-27T07:42:52.705Z,1030.72
2023-02-27T07:43:50.365Z,1030.71
2023-02-27T07:44:50.532Z,1030.70
2023-02-27T07:45:50.687Z,1030.68
2023-02-27T07:46:50.915Z,1030.69
2023-02-27T07:47:51.034Z,1030.72
2023-02-27T07:48:51.230Z,1030.76
2023-02-27T07:49:51.387Z,1030.75
2023-02-27T07:50:51.580Z,1030.71
2023-02-27T07:51:51.776Z,1030.74
2023-02-27T07:52:51.936Z,1030.69
2023-02-27T07:53:52.141Z,1030.71
2023-02-27T07:54:52.298Z,1030.75
2023-02-27T07:55:52.486Z,1030.83
2023-02-27T07:56:52.667Z,1030.91
2023-02-27T07:57:52.837Z,1030.92
2023-02-27T07:58:52.985Z,1030.86
2023-02-27T07:59:53.188Z,1030.85
2023-02-27T08:00:53.346Z,1030.83
2023-02-27T08:01:53.525Z,1030.84
2023-02-27T08:02:53.722Z,1030.91
2023-02-27T08:03:53.880Z,1030.88
2023-02-27T08:04:54.126Z,1030.88
2023-02-27T08:05:54.210Z,1030.82
2023-02-27T08:06:54.415Z,1030.88
2023-02-27T08:07:54.590Z,1030.91
2023-02-27T08:08:54.750Z,1030.87
2023-02-27T08:09:54.915Z,1030.88
2023-02-27T08:10:55.087Z,1030.89
2023-02-27T08:11:55.286Z,1030.89
2023-02-27T08:12:55.406Z,1030.92
2023-02-27T08:14:00.676Z,1030.94
2023-02-27T08:14:56.754Z,1030.96
2023-02-27T08:15:55.944Z,1030.98
2023-02-27T08:16:56.131Z,1030.96
2023-02-27T08:17:56.266Z,1030.98
2023-02-27T08:18:56.464Z,1031.00
2023-02-27T08:19:56.661Z,1031.02
2023-02-27T08:20:56.818Z,1030.99
2023-02-27T08:21:57.026Z,1030.99
2023-02-27T08:22:57.187Z,1031.01
2023-02-27T08:23:57.368Z,1031.02
2023-02-27T08:24:57.523Z,1031.07
2023-02-27T08:25:57.687Z,1031.05
2023-02-27T08:26:57.886Z,1031.06
2023-02-27T08:27:58.045Z,1030.99
2023-02-27T08:28:58.234Z,1031.00
2023-02-27T08:29:58.394Z,1031.05
2023-02-27T08:30:58.588Z,1031.05
2023-02-27T08:31:58.918Z,1031.04
2023-02-27T08:32:58.939Z,1031.07
2023-02-27T08:34:09.396Z,1031.03
2023-02-27T08:35:01.271Z,1031.04
2023-02-27T08:35:59.513Z,1031.03
2023-02-27T08:36:59.677Z,1031.03
2023-02-27T08:37:59.837Z,1031.00
2023-02-27T08:39:00.018Z,1031.03
2023-02-27T08:40:00.191Z,1031.06
2023-02-27T08:41:00.338Z,1031.03
2023-02-27T08:42:00.541Z,1031.03
2023-02-27T08:43:00.706Z,1031.02
2023-02-27T08:44:00.897Z,1031.04
2023-02-27T08:45:01.080Z,1031.07
2023-02-27T08:46:01.307Z,1031.05
2023-02-27T08:47:01.441Z,1031.07
2023-02-27T08:48:01.575Z,1031.07
2023-02-27T08:49:01.771Z,1031.04
2023-02-27T08:50:01.953Z,1031.09
2023-02-27T08:51:02.118Z,1031.02
2023-02-27T08:52:02.341Z,1031.01
2023-02-27T08:53:02.492Z,1031.03
2023-02-27T08:54:02.669Z,1031.01
2023-02-27T08:55:02.840Z,1031.03
2023-02-27T08:56:03.016Z,1031.04
2023-02-27T08:57:03.238Z,1031.06
2023-02-27T08:58:03.377Z,1031.05
2023-02-27T08:59:03.581Z,1030.98
2023-02-27T09:00:03.794Z,1031.00
2023-02-27T09:01:03.909Z,1030.94
2023-02-27T09:02:04.072Z,1030.98
2023-02-27T09:03:04.314Z,1030.98
2023-02-27T09:04:04.790Z,1031.01
2023-02-27T09:05:04.597Z,1030.99
2023-02-27T09:06:04.755Z,1031.00
2023-02-27T09:07:04.945Z,1031.05
2023-02-27T09:08:05.110Z,1031.05
2023-02-27T09:09:05.279Z,1031.04
2023-02-27T09:10:05.450Z,1031.05
2023-02-27T09:11:05.594Z,1031.05
2023-02-27T09:12:05.795Z,1031.03
2023-02-27T09:13:05.958Z,1031.01
2023-02-27T09:14:06.146Z,1031.06
2023-02-27T09:15:06.329Z,1031.08
2023-02-27T09:16:06.519Z,1031.06
2023-02-27T09:17:06.700Z,1031.06
2023-02-27T09:18:06.863Z,1031.06
2023-02-27T09:19:07.073Z,1031.03
2023-02-27T09:20:07.235Z,1031.06
2023-02-27T09:21:07.439Z,1031.04
2023-02-27T09:22:07.628Z,1031.01
2023-02-27T09:23:07.792Z,1031.04
2023-02-27T09:24:19.180Z,1031.05
2023-02-27T09:25:09.109Z,1031.05
2023-02-27T09:26:08.274Z,1031.07
2023-02-27T09:27:08.481Z,1031.02
2023-02-27T09:28:08.614Z,1031.04
2023-02-27T09:29:08.813Z,1031.06
2023-02-27T09:30:08.959Z,1031.11
2023-02-27T09:31:09.144Z,1031.11
2023-02-27T09:32:09.436Z,1031.11
2023-02-27T09:33:09.496Z,1031.10
2023-02-27T09:34:09.663Z,1031.12
2023-02-27T09:35:09.850Z,1031.12
2023-02-27T09:36:10.023Z,1031.14
2023-02-27T09:37:10.194Z,1031.15
2023-02-27T09:38:10.323Z,1031.16
2023-02-27T09:39:10.510Z,1031.18
2023-02-27T09:40:10.634Z,1031.18
2023-02-27T09:41:10.829Z,1031.24
2023-02-27T09:42:11.012Z,1031.20
2023-02-27T09:43:11.248Z,1031.18
2023-02-27T09:44:11.342Z,1031.20
2023-02-27T09:45:11.513Z,1031.19
2023-02-27T09:46:11.720Z,1031.19
2023-02-27T09:47:11.865Z,1031.26
2023-02-27T09:48:12.075Z,1031.20
2023-02-27T09:49:12.213Z,1031.22
2023-02-27T09:50:12.364Z,1031.23
2023-02-27T09:51:12.587Z,1031.24
2023-02-27T09:52:12.715Z,1031.23
2023-02-27T09:53:12.915Z,1031.23
2023-02-27T09:54:13.064Z,1031.25
2023-02-27T09:55:13.240Z,1031.20
2023-02-27T09:56:13.406Z,1031.24
2023-02-27T09:57:13.603Z,1031.25
2023-02-27T09:58:13.765Z,1031.31
2023-02-27T09:59:13.906Z,1031.29
2023-02-27T10:00:14.102Z,1031.28
2023-02-27T10:01:14.290Z,1031.33
2023-02-27T10:02:14.456Z,1031.31
2023-02-27T10:03:14.639Z,1031.32
2023-02-27T10:04:14.815Z,1031.36
2023-02-27T10:05:14.969Z,1031.31
2023-02-27T10:06:15.155Z,1031.34
2023-02-27T10:07:15.305Z,1031.32
2023-02-27T10:08:15.490Z,1031.31
2023-02-27T10:09:15.632Z,1031.30
2023-02-27T10:10:15.820Z,1031.34
2023-02-27T10:11:15.981Z,1031.30
2023-02-27T10:12:16.189Z,1031.30
2023-02-27T10:13:16.345Z,1031.34
2023-02-27T10:14:16.490Z,1031.33
2023-02-27T10:15:16.709Z,1031.35
2023-02-27T10:16:16.872Z,1031.32
2023-02-27T10:17:17.033Z,1031.33
2023-02-27T10:18:27.004Z,1031.35
2023-02-27T10:19:18.365Z,1031.34
2023-02-27T10:20:17.495Z,1031.32
2023-02-27T10:21:17.674Z,1031.32
2023-02-27T10:22:17.842Z,1031.38
2023-02-27T10:23:18.055Z,1031.37
2023-02-27T10:24:18.196Z,1031.35
2023-02-27T10:25:30.864Z,1031.36
2023-02-27T10:26:19.591Z,1031.38
2023-02-27T10:27:18.762Z,1031.35
2023-02-27T10:28:18.967Z,1031.35
2023-02-27T10:29:19.147Z,1031.30
2023-02-27T10:30:28.554Z,1031.31
2023-02-27T10:31:21.166Z,1031.28
2023-02-27T10:32:19.689Z,1031.34
2023-02-27T10:33:19.816Z,1031.34
2023-02-27T10:34:20.005Z,1031.34
2023-02-27T10:35:20.166Z,1031.39
2023-02-27T10:36:32.902Z,1031.36
2023-02-27T10:37:21.545Z,1031.31
2023-02-27T10:38:20.752Z,1031.28
2023-02-27T10:39:20.930Z,1031.27
2023-02-27T10:40:21.046Z,1031.31
2023-02-27T10:41:21.205Z,1031.27
2023-02-27T10:42:21.395Z,1031.29
2023-02-27T10:43:21.569Z,1031.29
2023-02-27T10:44:21.744Z,1031.30
2023-02-27T10:45:21.916Z,1031.30
2023-02-27T10:46:22.145Z,1031.36
2023-02-27T10:47:22.231Z,1031.35
2023-02-27T10:48:22.421Z,1031.36
2023-02-27T10:49:22.578Z,1031.35
2023-02-27T10:50:22.730Z,1031.37
2023-02-27T10:51:22.931Z,1031.35
2023-02-27T10:52:23.123Z,1031.34
2023-02-27T10:53:23.327Z,1031.33
2023-02-27T10:54:23.572Z,1031.34
2023-02-27T10:55:23.649Z,1031.31
2023-02-27T10:56:23.859Z,1031.34
2023-02-27T10:57:24.028Z,1031.35
2023-02-27T10:58:24.214Z,1031.30
2023-02-27T10:59:24.381Z,1031.31
2023-02-27T11:00:24.577Z,1031.32
2023-02-27T11:01:24.940Z,1031.33
2023-02-27T11:02:24.924Z,1031.34
2023-02-27T11:03:25.129Z,1031.32
2023-02-27T11:04:25.302Z,1031.28
2023-02-27T11:05:25.459Z,1031.29
2023-02-27T11:06:25.662Z,1031.31
2023-02-27T11:07:25.777Z,1031.27
2023-02-27T11:08:25.954Z,1031.31
2023-02-27T11:09:26.124Z,1031.26
2023-02-27T11:10:26.286Z,1031.28
2023-02-27T11:11:26.713Z,1031.32
2023-02-27T11:12:26.628Z,1031.32
2023-02-27T11:13:26.827Z,1031.30
2023-02-27T11:14:26.998Z,1031.30
2023-02-27T11:15:27.169Z,1031.25
2023-02-27T11:16:27.329Z,1031.23
2023-02-27T11:17:27.567Z,1031.19
2023-02-27T11:18:27.719Z,1031.19
2023-02-27T11:19:27.876Z,1031.19
2023-02-27T11:20:28.065Z,1031.25
2023-02-27T11:21:28.629Z,1031.24
2023-02-27T11:22:28.444Z,1031.25
2023-02-27T11:23:28.654Z,1031.27
2023-02-27T11:24:28.813Z,1031.26
2023-02-27T11:25:29.004Z,1031.26
2023-02-27T11:26:29.150Z,1031.30
2023-02-27T11:27:29.451Z,1031.28
2023-02-27T11:28:29.544Z,1031.27
2023-02-27T11:29:29.711Z,1031.25
2023-02-27T11:30:29.902Z,1031.22
2023-02-27T11:31:30.462Z,1031.21
2023-02-27T11:32:30.210Z,1031.19
2023-02-27T11:33:30.382Z,1031.23
2023-02-27T11:34:30.563Z,1031.24
2023-02-27T11:35:30.785Z,1031.21
2023-02-27T11:36:30.891Z,1031.26
2023-02-27T11:37:31.063Z,1031.23
2023-02-27T11:38:31.244Z,1031.17
2023-02-27T11:39:31.415Z,1031.17
2023-02-27T11:40:31.634Z,1031.21
2023-02-27T11:41:31.753Z,1031.24
2023-02-27T11:42:31.938Z,1031.27
2023-02-27T11:43:32.139Z,1031.27
2023-02-27T11:44:49.907Z,1031.23
2023-02-27T11:46:04.618Z,1031.29
2023-02-27T11:46:47.649Z,1031.28
2023-02-27T11:47:33.899Z,1031.25
2023-02-27T11:48:33.069Z,1031.24
2023-02-27T11:49:33.239Z,1031.18
2023-02-27T11:50:33.409Z,1031.18
2023-02-27T11:51:33.572Z,1031.18
2023-02-27T11:52:33.750Z,1031.14
2023-02-27T11:53:33.980Z,1031.14
2023-02-27T11:54:34.091Z,1031.19
2023-02-27T11:55:34.260Z,1031.18
2023-02-27T11:56:36.171Z,1031.21
2023-02-27T11:57:34.624Z,1031.18
2023-02-27T11:58:34.807Z,1031.14
2023-02-27T11:59:34.939Z,1031.13
2023-02-27T12:00:35.131Z,1031.15
2023-02-27T12:01:35.291Z,1031.08
2023-02-27T12:02:37.607Z,1031.13
2023-02-27T12:03:35.703Z,1031.09
2023-02-27T12:04:35.806Z,1031.13
2023-02-27T12:05:35.980Z,1031.10
2023-02-27T12:06:36.140Z,1031.08
2023-02-27T12:07:36.299Z,1031.08